sensor_id;sensor_type;location;lat;lon;timestamp;temperature;humidity
6480;DHT22;71753;48.772;9.148;2023-12-20T00:01:07;6.07;82.10
6480;DHT22;71753;48.772;9.148;2023-12-20T00:03:34;6.08;81.71
6480;DHT22;71753;48.772;9.148;2023-12-20T00:06:00;6.14;81.59
6480;DHT22;71753;48.772;9.148;2023-12-20T00:08:27;6.14;81.68
6480;DHT22;71753;48.772;9.148;2023-12-20T00:10:54;6.12;82.18
6480;DHT22;71753;48.772;9.148;2023-12-20T00:13:22;6.13;82.20
6480;DHT22;71753;48.772;9.148;2023-12-20T00:15:48;6.19;81.96
6480;DHT22;71753;48.772;9.148;2023-12-20T00:18:15;6.23;81.91
6480;DHT22;71753;48.772;9.148;2023-12-20T00:20:41;6.19;82.68
6480;DHT22;71753;48.772;9.148;2023-12-20T00:23:08;6.17;82.72
6480;DHT22;71753;48.772;9.148;2023-12-20T00:25:35;6.20;82.58
6480;DHT22;71753;48.772;9.148;2023-12-20T00:28:02;6.17;83.78
6480;DHT22;71753;48.772;9.148;2023-12-20T00:30:30;6.10;84.56
6480;DHT22;71753;48.772;9.148;2023-12-20T00:32:56;6.07;85.03
6480;DHT22;71753;48.772;9.148;2023-12-20T00:35:23;6.05;85.48
6480;DHT22;71753;48.772;9.148;2023-12-20T00:37:50;5.98;86.51
6480;DHT22;71753;48.772;9.148;2023-12-20T00:40:17;5.99;86.19
6480;DHT22;71753;48.772;9.148;2023-12-20T00:42:43;5.96;86.68
6480;DHT22;71753;48.772;9.148;2023-12-20T00:45:12;5.96;86.09
6480;DHT22;71753;48.772;9.148;2023-12-20T00:47:40;5.90;87.22
6480;DHT22;71753;48.772;9.148;2023-12-20T00:50:08;5.90;87.61
6480;DHT22;71753;48.772;9.148;2023-12-20T00:52:33;5.93;86.91
6480;DHT22;71753;48.772;9.148;2023-12-20T00:55:00;5.93;87.67
6480;DHT22;71753;48.772;9.148;2023-12-20T00:57:26;5.87;88.12
6480;DHT22;71753;48.772;9.148;2023-12-20T00:59:53;5.80;88.28
6480;DHT22;71753;48.772;9.148;2023-12-20T01:02:20;5.74;89.15
6480;DHT22;71753;48.772;9.148;2023-12-20T01:04:48;5.74;89.90
6480;DHT22;71753;48.772;9.148;2023-12-20T01:07:14;5.70;90.33
6480;DHT22;71753;48.772;9.148;2023-12-20T01:09:41;5.65;90.88
6480;DHT22;71753;48.772;9.148;2023-12-20T01:12:08;5.64;90.82
6480;DHT22;71753;48.772;9.148;2023-12-20T01:14:33;5.60;91.59
6480;DHT22;71753;48.772;9.148;2023-12-20T01:17:01;5.52;92.60
6480;DHT22;71753;48.772;9.148;2023-12-20T01:19:28;5.55;92.26
6480;DHT22;71753;48.772;9.148;2023-12-20T01:21:56;5.55;92.37
6480;DHT22;71753;48.772;9.148;2023-12-20T01:24:23;5.48;93.24
6480;DHT22;71753;48.772;9.148;2023-12-20T01:26:49;5.46;93.40
6480;DHT22;71753;48.772;9.148;2023-12-20T01:29:16;5.49;93.08
6480;DHT22;71753;48.772;9.148;2023-12-20T01:31:42;5.47;93.64
6480;DHT22;71753;48.772;9.148;2023-12-20T01:34:09;5.43;93.85
6480;DHT22;71753;48.772;9.148;2023-12-20T01:36:36;5.47;93.31
6480;DHT22;71753;48.772;9.148;2023-12-20T01:39:04;5.52;92.91
6480;DHT22;71753;48.772;9.148;2023-12-20T01:41:30;5.48;93.24
6480;DHT22;71753;48.772;9.148;2023-12-20T01:43:57;5.54;92.70
6480;DHT22;71753;48.772;9.148;2023-12-20T01:46:24;5.57;92.81
6480;DHT22;71753;48.772;9.148;2023-12-20T01:48:51;5.50;93.30
6480;DHT22;71753;48.772;9.148;2023-12-20T01:51:19;5.52;92.92
6480;DHT22;71753;48.772;9.148;2023-12-20T01:53:47;5.51;93.57
6480;DHT22;71753;48.772;9.148;2023-12-20T01:56:15;5.45;94.18
6480;DHT22;71753;48.772;9.148;2023-12-20T01:58:44;5.48;93.43
6480;DHT22;71753;48.772;9.148;2023-12-20T02:01:11;5.48;93.76
6480;DHT22;71753;48.772;9.148;2023-12-20T02:03:39;5.49;93.53
6480;DHT22;71753;48.772;9.148;2023-12-20T02:06:05;5.52;93.06
6480;DHT22;71753;48.772;9.148;2023-12-20T02:08:32;5.53;93.42
6480;DHT22;71753;48.772;9.148;2023-12-20T02:10:59;5.50;93.90
6480;DHT22;71753;48.772;9.148;2023-12-20T02:13:27;5.57;93.17
6480;DHT22;71753;48.772;9.148;2023-12-20T02:15:54;5.62;93.04
6480;DHT22;71753;48.772;9.148;2023-12-20T02:18:21;5.63;93.23
6480;DHT22;71753;48.772;9.148;2023-12-20T02:20:48;5.62;93.06
6480;DHT22;71753;48.772;9.148;2023-12-20T02:23:16;5.65;93.10
6480;DHT22;71753;48.772;9.148;2023-12-20T02:25:43;5.62;93.14
6480;DHT22;71753;48.772;9.148;2023-12-20T02:28:10;5.68;92.69
6480;DHT22;71753;48.772;9.148;2023-12-20T02:30:36;5.67;92.89
6480;DHT22;71753;48.772;9.148;2023-12-20T02:33:03;5.62;93.36
6480;DHT22;71753;48.772;9.148;2023-12-20T02:35:33;5.61;93.79
6480;DHT22;71753;48.772;9.148;2023-12-20T02:37:59;5.55;94.18
6480;DHT22;71753;48.772;9.148;2023-12-20T02:40:27;5.50;94.44
6480;DHT22;71753;48.772;9.148;2023-12-20T02:42:54;5.54;94.26
6480;DHT22;71753;48.772;9.148;2023-12-20T02:45:20;5.65;93.70
6480;DHT22;71753;48.772;9.148;2023-12-20T02:47:47;5.68;93.43
6480;DHT22;71753;48.772;9.148;2023-12-20T02:50:14;5.57;94.12
6480;DHT22;71753;48.772;9.148;2023-12-20T02:52:42;5.67;93.93
6480;DHT22;71753;48.772;9.148;2023-12-20T02:55:09;5.57;94.05
6480;DHT22;71753;48.772;9.148;2023-12-20T02:57:37;5.56;94.36
6480;DHT22;71753;48.772;9.148;2023-12-20T03:00:07;5.67;94.03
6480;DHT22;71753;48.772;9.148;2023-12-20T03:02:34;5.57;94.51
6480;DHT22;71753;48.772;9.148;2023-12-20T03:05:01;5.63;94.58
6480;DHT22;71753;48.772;9.148;2023-12-20T03:07:28;5.60;94.78
6480;DHT22;71753;48.772;9.148;2023-12-20T03:09:54;5.40;95.78
6480;DHT22;71753;48.772;9.148;2023-12-20T03:12:21;5.38;96.02
6480;DHT22;71753;48.772;9.148;2023-12-20T03:14:49;5.28;96.58
6480;DHT22;71753;48.772;9.148;2023-12-20T03:17:16;5.24;97.29
6480;DHT22;71753;48.772;9.148;2023-12-20T03:19:42;5.37;97.02
6480;DHT22;71753;48.772;9.148;2023-12-20T03:22:09;5.43;96.87
6480;DHT22;71753;48.772;9.148;2023-12-20T03:24:35;5.50;96.46
6480;DHT22;71753;48.772;9.148;2023-12-20T03:27:03;5.47;96.15
6480;DHT22;71753;48.772;9.148;2023-12-20T03:29:29;5.53;95.34
6480;DHT22;71753;48.772;9.148;2023-12-20T03:31:57;5.60;94.24
6480;DHT22;71753;48.772;9.148;2023-12-20T03:34:24;5.63;93.31
6480;DHT22;71753;48.772;9.148;2023-12-20T03:36:50;5.65;92.53
6480;DHT22;71753;48.772;9.148;2023-12-20T03:39:17;5.55;93.23
6480;DHT22;71753;48.772;9.148;2023-12-20T03:41:44;5.56;91.70
6480;DHT22;71753;48.772;9.148;2023-12-20T03:44:10;5.57;91.93
6480;DHT22;71753;48.772;9.148;2023-12-20T03:46:37;5.60;91.34
6480;DHT22;71753;48.772;9.148;2023-12-20T03:49:05;5.55;92.21
6480;DHT22;71753;48.772;9.148;2023-12-20T03:51:31;5.52;92.10
6480;DHT22;71753;48.772;9.148;2023-12-20T03:53:58;5.47;91.89
6480;DHT22;71753;48.772;9.148;2023-12-20T03:56:24;5.48;92.39
6480;DHT22;71753;48.772;9.148;2023-12-20T03:58:51;5.42;92.92
6480;DHT22;71753;48.772;9.148;2023-12-20T04:01:18;5.41;91.69
6480;DHT22;71753;48.772;9.148;2023-12-20T04:03:44;5.45;91.72
6480;DHT22;71753;48.772;9.148;2023-12-20T04:06:17;5.37;92.01
6480;DHT22;71753;48.772;9.148;2023-12-20T04:08:44;5.43;90.98
6480;DHT22;71753;48.772;9.148;2023-12-20T04:11:10;5.33;92.36
6480;DHT22;71753;48.772;9.148;2023-12-20T04:13:37;5.27;92.53
6480;DHT22;71753;48.772;9.148;2023-12-20T04:16:04;5.23;93.08
6480;DHT22;71753;48.772;9.148;2023-12-20T04:18:30;5.25;92.18
6480;DHT22;71753;48.772;9.148;2023-12-20T04:20:57;5.17;92.71
6480;DHT22;71753;48.772;9.148;2023-12-20T04:23:25;5.26;90.73
6480;DHT22;71753;48.772;9.148;2023-12-20T04:25:51;5.25;92.04
6480;DHT22;71753;48.772;9.148;2023-12-20T04:28:18;5.26;91.69
6480;DHT22;71753;48.772;9.148;2023-12-20T04:30:45;5.22;91.24
6480;DHT22;71753;48.772;9.148;2023-12-20T04:33:11;5.22;91.92
6480;DHT22;71753;48.772;9.148;2023-12-20T04:35:38;5.12;92.63
6480;DHT22;71753;48.772;9.148;2023-12-20T04:38:06;5.09;91.95
6480;DHT22;71753;48.772;9.148;2023-12-20T04:40:34;5.09;92.08
6480;DHT22;71753;48.772;9.148;2023-12-20T04:43:01;5.07;92.49
6480;DHT22;71753;48.772;9.148;2023-12-20T04:45:27;5.07;92.73
6480;DHT22;71753;48.772;9.148;2023-12-20T04:47:55;5.15;91.31
6480;DHT22;71753;48.772;9.148;2023-12-20T04:50:21;5.15;91.72
6480;DHT22;71753;48.772;9.148;2023-12-20T04:52:48;5.18;90.61
6480;DHT22;71753;48.772;9.148;2023-12-20T04:55:14;5.04;92.95
6480;DHT22;71753;48.772;9.148;2023-12-20T04:57:42;5.01;92.37
6480;DHT22;71753;48.772;9.148;2023-12-20T05:00:10;5.06;92.44
6480;DHT22;71753;48.772;9.148;2023-12-20T05:02:37;5.10;91.59
6480;DHT22;71753;48.772;9.148;2023-12-20T05:05:04;5.10;92.10
6480;DHT22;71753;48.772;9.148;2023-12-20T05:07:31;5.13;91.23
6480;DHT22;71753;48.772;9.148;2023-12-20T05:09:58;5.06;92.75
6480;DHT22;71753;48.772;9.148;2023-12-20T05:12:24;5.03;92.53
6480;DHT22;71753;48.772;9.148;2023-12-20T05:14:54;5.03;93.12
6480;DHT22;71753;48.772;9.148;2023-12-20T05:17:20;5.06;91.89
6480;DHT22;71753;48.772;9.148;2023-12-20T05:19:47;5.03;92.68
6480;DHT22;71753;48.772;9.148;2023-12-20T05:22:13;5.07;92.21
6480;DHT22;71753;48.772;9.148;2023-12-20T05:24:40;5.01;93.03
6480;DHT22;71753;48.772;9.148;2023-12-20T05:27:07;5.07;92.04
6480;DHT22;71753;48.772;9.148;2023-12-20T05:29:33;5.08;92.26
6480;DHT22;71753;48.772;9.148;2023-12-20T05:32:01;5.09;92.22
6480;DHT22;71753;48.772;9.148;2023-12-20T05:34:30;5.04;93.06
6480;DHT22;71753;48.772;9.148;2023-12-20T05:36:57;5.05;93.31
6480;DHT22;71753;48.772;9.148;2023-12-20T05:39:24;5.13;92.50
6480;DHT22;71753;48.772;9.148;2023-12-20T05:41:51;5.07;93.22
6480;DHT22;71753;48.772;9.148;2023-12-20T05:44:17;5.09;93.06
6480;DHT22;71753;48.772;9.148;2023-12-20T05:46:44;5.04;93.96
6480;DHT22;71753;48.772;9.148;2023-12-20T05:49:12;5.04;93.98
6480;DHT22;71753;48.772;9.148;2023-12-20T05:51:39;5.06;94.11
6480;DHT22;71753;48.772;9.148;2023-12-20T05:54:06;5.07;94.06
6480;DHT22;71753;48.772;9.148;2023-12-20T05:56:32;5.08;94.04
6480;DHT22;71753;48.772;9.148;2023-12-20T05:58:59;5.06;94.06
6480;DHT22;71753;48.772;9.148;2023-12-20T06:01:25;5.03;94.52
6480;DHT22;71753;48.772;9.148;2023-12-20T06:03:52;5.07;94.04
6480;DHT22;71753;48.772;9.148;2023-12-20T06:06:20;5.09;94.01
6480;DHT22;71753;48.772;9.148;2023-12-20T06:08:47;5.04;94.59
6480;DHT22;71753;48.772;9.148;2023-12-20T06:11:13;5.02;94.81
6480;DHT22;71753;48.772;9.148;2023-12-20T06:13:40;5.07;94.59
6480;DHT22;71753;48.772;9.148;2023-12-20T06:16:07;5.06;94.64
6480;DHT22;71753;48.772;9.148;2023-12-20T06:18:33;5.09;94.14
6480;DHT22;71753;48.772;9.148;2023-12-20T06:21:01;5.10;94.42
6480;DHT22;71753;48.772;9.148;2023-12-20T06:23:29;5.17;93.69
6480;DHT22;71753;48.772;9.148;2023-12-20T06:25:56;5.12;94.27
6480;DHT22;71753;48.772;9.148;2023-12-20T06:28:22;5.17;93.40
6480;DHT22;71753;48.772;9.148;2023-12-20T06:30:49;5.17;93.55
6480;DHT22;71753;48.772;9.148;2023-12-20T06:33:17;5.15;94.36
6480;DHT22;71753;48.772;9.148;2023-12-20T06:35:44;5.16;94.17
6480;DHT22;71753;48.772;9.148;2023-12-20T06:38:11;5.15;94.55
6480;DHT22;71753;48.772;9.148;2023-12-20T06:40:39;5.18;93.94
6480;DHT22;71753;48.772;9.148;2023-12-20T06:43:05;5.16;94.75
6480;DHT22;71753;48.772;9.148;2023-12-20T06:45:32;5.17;94.53
6480;DHT22;71753;48.772;9.148;2023-12-20T06:47:59;5.28;93.31
6480;DHT22;71753;48.772;9.148;2023-12-20T06:50:25;5.25;93.75
6480;DHT22;71753;48.772;9.148;2023-12-20T06:52:53;5.24;94.17
6480;DHT22;71753;48.772;9.148;2023-12-20T06:55:19;5.25;93.88
6480;DHT22;71753;48.772;9.148;2023-12-20T06:57:47;5.35;92.77
6480;DHT22;71753;48.772;9.148;2023-12-20T07:00:15;5.33;93.49
6480;DHT22;71753;48.772;9.148;2023-12-20T07:02:41;5.36;93.15
6480;DHT22;71753;48.772;9.148;2023-12-20T07:05:09;5.35;93.24
6480;DHT22;71753;48.772;9.148;2023-12-20T07:07:36;5.41;92.30
6480;DHT22;71753;48.772;9.148;2023-12-20T07:10:03;5.36;92.92
6480;DHT22;71753;48.772;9.148;2023-12-20T07:12:30;5.41;92.83
6480;DHT22;71753;48.772;9.148;2023-12-20T07:14:58;5.41;92.40
6480;DHT22;71753;48.772;9.148;2023-12-20T07:17:25;5.46;92.43
6480;DHT22;71753;48.772;9.148;2023-12-20T07:19:51;5.34;93.59
6480;DHT22;71753;48.772;9.148;2023-12-20T07:22:18;5.34;93.54
6480;DHT22;71753;48.772;9.148;2023-12-20T07:24:44;5.38;93.54
6480;DHT22;71753;48.772;9.148;2023-12-20T07:27:11;5.41;93.47
6480;DHT22;71753;48.772;9.148;2023-12-20T07:29:38;5.43;93.27
6480;DHT22;71753;48.772;9.148;2023-12-20T07:32:06;5.43;92.46
6480;DHT22;71753;48.772;9.148;2023-12-20T07:34:33;5.39;92.95
6480;DHT22;71753;48.772;9.148;2023-12-20T07:37:00;5.38;90.89
6480;DHT22;71753;48.772;9.148;2023-12-20T07:39:27;5.37;89.71
6480;DHT22;71753;48.772;9.148;2023-12-20T07:41:53;5.36;88.95
6480;DHT22;71753;48.772;9.148;2023-12-20T07:44:20;5.33;90.73
6480;DHT22;71753;48.772;9.148;2023-12-20T07:46:46;5.26;90.21
6480;DHT22;71753;48.772;9.148;2023-12-20T07:49:15;5.25;88.46
6480;DHT22;71753;48.772;9.148;2023-12-20T07:51:42;5.23;88.56
6480;DHT22;71753;48.772;9.148;2023-12-20T07:54:08;5.15;88.98
6480;DHT22;71753;48.772;9.148;2023-12-20T07:56:35;5.23;87.30
6480;DHT22;71753;48.772;9.148;2023-12-20T07:59:01;5.15;88.12
6480;DHT22;71753;48.772;9.148;2023-12-20T08:01:28;5.15;87.40
6480;DHT22;71753;48.772;9.148;2023-12-20T08:03:55;5.10;89.37
6480;DHT22;71753;48.772;9.148;2023-12-20T08:06:23;5.01;88.30
6480;DHT22;71753;48.772;9.148;2023-12-20T08:08:50;5.08;87.29
6480;DHT22;71753;48.772;9.148;2023-12-20T08:11:17;5.03;88.67
6480;DHT22;71753;48.772;9.148;2023-12-20T08:13:43;5.00;88.94
6480;DHT22;71753;48.772;9.148;2023-12-20T08:16:10;5.00;88.18
6480;DHT22;71753;48.772;9.148;2023-12-20T08:18:38;4.92;88.81
6480;DHT22;71753;48.772;9.148;2023-12-20T08:21:05;5.00;87.83
6480;DHT22;71753;48.772;9.148;2023-12-20T08:23:34;5.05;86.93
6480;DHT22;71753;48.772;9.148;2023-12-20T08:26:04;5.09;85.12
6480;DHT22;71753;48.772;9.148;2023-12-20T08:28:30;5.10;85.06
6480;DHT22;71753;48.772;9.148;2023-12-20T08:30:57;5.12;84.74
6480;DHT22;71753;48.772;9.148;2023-12-20T08:33:24;5.13;82.95
6480;DHT22;71753;48.772;9.148;2023-12-20T08:35:50;5.06;85.03
6480;DHT22;71753;48.772;9.148;2023-12-20T08:38:17;4.95;86.16
6480;DHT22;71753;48.772;9.148;2023-12-20T08:40:45;4.89;86.14
6480;DHT22;71753;48.772;9.148;2023-12-20T08:43:12;4.83;85.41
6480;DHT22;71753;48.772;9.148;2023-12-20T08:45:38;4.83;85.32
6480;DHT22;71753;48.772;9.148;2023-12-20T08:48:06;4.76;85.51
6480;DHT22;71753;48.772;9.148;2023-12-20T08:50:33;4.77;85.06
6480;DHT22;71753;48.772;9.148;2023-12-20T08:53:00;4.77;85.33
6480;DHT22;71753;48.772;9.148;2023-12-20T08:55:26;4.80;84.44
6480;DHT22;71753;48.772;9.148;2023-12-20T08:57:55;4.93;84.31
6480;DHT22;71753;48.772;9.148;2023-12-20T09:00:22;5.05;84.16
6480;DHT22;71753;48.772;9.148;2023-12-20T09:02:49;4.96;87.15
6480;DHT22;71753;48.772;9.148;2023-12-20T09:05:16;5.00;87.01
6480;DHT22;71753;48.772;9.148;2023-12-20T09:07:43;4.83;87.44
6480;DHT22;71753;48.772;9.148;2023-12-20T09:10:09;4.86;88.35
6480;DHT22;71753;48.772;9.148;2023-12-20T09:12:36;5.01;87.12
6480;DHT22;71753;48.772;9.148;2023-12-20T09:15:07;4.95;86.21
6480;DHT22;71753;48.772;9.148;2023-12-20T09:17:33;5.12;85.74
6480;DHT22;71753;48.772;9.148;2023-12-20T09:20:00;5.10;85.33
6480;DHT22;71753;48.772;9.148;2023-12-20T09:22:27;5.16;84.91
6480;DHT22;71753;48.772;9.148;2023-12-20T09:24:54;5.24;84.32
6480;DHT22;71753;48.772;9.148;2023-12-20T09:27:20;5.33;84.39
6480;DHT22;71753;48.772;9.148;2023-12-20T09:29:47;5.36;83.77
6480;DHT22;71753;48.772;9.148;2023-12-20T09:32:16;5.45;82.21
6480;DHT22;71753;48.772;9.148;2023-12-20T09:34:43;5.46;80.59
6480;DHT22;71753;48.772;9.148;2023-12-20T09:37:09;5.50;81.82
6480;DHT22;71753;48.772;9.148;2023-12-20T09:39:36;5.53;77.69
6480;DHT22;71753;48.772;9.148;2023-12-20T09:42:03;5.59;78.63
6480;DHT22;71753;48.772;9.148;2023-12-20T09:44:31;5.69;77.07
6480;DHT22;71753;48.772;9.148;2023-12-20T09:46:58;5.80;77.32
6480;DHT22;71753;48.772;9.148;2023-12-20T09:49:29;5.70;75.78
6480;DHT22;71753;48.772;9.148;2023-12-20T09:51:56;5.72;74.81
6480;DHT22;71753;48.772;9.148;2023-12-20T09:54:23;5.86;77.94
6480;DHT22;71753;48.772;9.148;2023-12-20T09:56:50;5.87;74.67
6480;DHT22;71753;48.772;9.148;2023-12-20T09:59:17;5.97;74.83
6480;DHT22;71753;48.772;9.148;2023-12-20T10:01:43;6.04;74.18
6480;DHT22;71753;48.772;9.148;2023-12-20T10:04:12;6.07;75.92
6480;DHT22;71753;48.772;9.148;2023-12-20T10:06:40;5.92;72.06
6480;DHT22;71753;48.772;9.148;2023-12-20T10:09:08;6.17;75.09
6480;DHT22;71753;48.772;9.148;2023-12-20T10:11:35;6.40;72.25
6480;DHT22;71753;48.772;9.148;2023-12-20T10:14:04;6.15;71.80
6480;DHT22;71753;48.772;9.148;2023-12-20T10:16:31;6.04;71.71
6480;DHT22;71753;48.772;9.148;2023-12-20T10:18:58;5.97;71.45
6480;DHT22;71753;48.772;9.148;2023-12-20T10:21:26;5.86;75.38
6480;DHT22;71753;48.772;9.148;2023-12-20T10:23:55;5.81;73.12
6480;DHT22;71753;48.772;9.148;2023-12-20T10:26:22;5.79;74.24
6480;DHT22;71753;48.772;9.148;2023-12-20T10:28:50;5.65;72.96
6480;DHT22;71753;48.772;9.148;2023-12-20T10:31:28;5.77;73.75
6480;DHT22;71753;48.772;9.148;2023-12-20T10:33:57;5.87;72.84
6480;DHT22;71753;48.772;9.148;2023-12-20T10:36:25;5.81;76.24
6480;DHT22;71753;48.772;9.148;2023-12-20T10:38:52;5.93;76.39
6480;DHT22;71753;48.772;9.148;2023-12-20T10:41:25;6.12;74.22
6480;DHT22;71753;48.772;9.148;2023-12-20T10:43:54;6.00;72.44
6480;DHT22;71753;48.772;9.148;2023-12-20T10:46:21;5.93;73.35
6480;DHT22;71753;48.772;9.148;2023-12-20T10:48:48;5.81;74.19
6480;DHT22;71753;48.772;9.148;2023-12-20T10:51:18;5.74;76.23
6480;DHT22;71753;48.772;9.148;2023-12-20T10:53:47;5.76;75.30
6480;DHT22;71753;48.772;9.148;2023-12-20T10:56:16;5.74;73.70
6480;DHT22;71753;48.772;9.148;2023-12-20T10:58:45;5.67;76.58
6480;DHT22;71753;48.772;9.148;2023-12-20T11:01:13;5.68;75.00
6480;DHT22;71753;48.772;9.148;2023-12-20T11:03:43;5.72;74.37
6480;DHT22;71753;48.772;9.148;2023-12-20T11:06:16;5.75;73.88
6480;DHT22;71753;48.772;9.148;2023-12-20T11:08:49;5.70;72.11
6480;DHT22;71753;48.772;9.148;2023-12-20T11:11:21;5.71;73.57
6480;DHT22;71753;48.772;9.148;2023-12-20T11:13:58;5.78;73.90
6480;DHT22;71753;48.772;9.148;2023-12-20T11:16:27;5.80;73.16
6480;DHT22;71753;48.772;9.148;2023-12-20T11:18:53;5.94;72.40
6480;DHT22;71753;48.772;9.148;2023-12-20T11:21:20;5.92;71.30
6480;DHT22;71753;48.772;9.148;2023-12-20T11:23:47;5.82;73.46
6480;DHT22;71753;48.772;9.148;2023-12-20T11:26:15;5.66;72.89
6480;DHT22;71753;48.772;9.148;2023-12-20T11:28:43;5.78;73.36
6480;DHT22;71753;48.772;9.148;2023-12-20T11:31:14;5.71;71.91
6480;DHT22;71753;48.772;9.148;2023-12-20T11:33:40;5.72;72.10
6480;DHT22;71753;48.772;9.148;2023-12-20T11:36:13;5.56;71.86
6480;DHT22;71753;48.772;9.148;2023-12-20T11:38:53;5.61;68.68
6480;DHT22;71753;48.772;9.148;2023-12-20T11:41:22;5.69;69.45
6480;DHT22;71753;48.772;9.148;2023-12-20T11:43:48;5.66;70.10
6480;DHT22;71753;48.772;9.148;2023-12-20T11:46:20;5.56;69.77
6480;DHT22;71753;48.772;9.148;2023-12-20T11:48:48;5.63;69.43
6480;DHT22;71753;48.772;9.148;2023-12-20T11:51:14;5.59;70.01
6480;DHT22;71753;48.772;9.148;2023-12-20T11:53:41;5.57;71.69
6480;DHT22;71753;48.772;9.148;2023-12-20T11:56:08;5.62;69.49
6480;DHT22;71753;48.772;9.148;2023-12-20T11:58:36;5.59;70.08
6480;DHT22;71753;48.772;9.148;2023-12-20T12:01:03;5.46;69.88
6480;DHT22;71753;48.772;9.148;2023-12-20T12:03:33;5.50;70.58
6480;DHT22;71753;48.772;9.148;2023-12-20T12:06:01;5.45;71.28
6480;DHT22;71753;48.772;9.148;2023-12-20T12:08:29;5.54;69.40
6480;DHT22;71753;48.772;9.148;2023-12-20T12:10:56;5.53;71.40
6480;DHT22;71753;48.772;9.148;2023-12-20T12:13:23;5.57;70.85
6480;DHT22;71753;48.772;9.148;2023-12-20T12:15:53;5.63;69.20
6480;DHT22;71753;48.772;9.148;2023-12-20T12:18:19;5.62;71.98
6480;DHT22;71753;48.772;9.148;2023-12-20T12:20:47;5.67;71.19
6480;DHT22;71753;48.772;9.148;2023-12-20T12:23:14;5.69;70.41
6480;DHT22;71753;48.772;9.148;2023-12-20T12:25:41;5.77;70.48
6480;DHT22;71753;48.772;9.148;2023-12-20T12:28:07;5.87;68.09
6480;DHT22;71753;48.772;9.148;2023-12-20T12:30:34;5.93;71.16
6480;DHT22;71753;48.772;9.148;2023-12-20T12:33:01;5.85;67.99
6480;DHT22;71753;48.772;9.148;2023-12-20T12:35:27;5.70;70.26
6480;DHT22;71753;48.772;9.148;2023-12-20T12:37:55;5.64;71.29
6480;DHT22;71753;48.772;9.148;2023-12-20T12:40:25;5.76;71.57
6480;DHT22;71753;48.772;9.148;2023-12-20T12:42:51;5.74;71.24
6480;DHT22;71753;48.772;9.148;2023-12-20T12:45:18;5.79;69.01
6480;DHT22;71753;48.772;9.148;2023-12-20T12:47:45;5.82;68.84
6480;DHT22;71753;48.772;9.148;2023-12-20T12:50:11;5.83;70.47
6480;DHT22;71753;48.772;9.148;2023-12-20T12:52:38;5.84;70.17
6480;DHT22;71753;48.772;9.148;2023-12-20T12:55:07;5.89;70.52
6480;DHT22;71753;48.772;9.148;2023-12-20T12:57:33;5.93;70.31
6480;DHT22;71753;48.772;9.148;2023-12-20T13:00:00;5.99;69.16
6480;DHT22;71753;48.772;9.148;2023-12-20T13:02:28;5.93;69.28
6480;DHT22;71753;48.772;9.148;2023-12-20T13:04:54;6.02;68.90
6480;DHT22;71753;48.772;9.148;2023-12-20T13:07:21;6.02;68.16
6480;DHT22;71753;48.772;9.148;2023-12-20T13:09:48;5.92;68.77
6480;DHT22;71753;48.772;9.148;2023-12-20T13:12:16;5.96;70.65
6480;DHT22;71753;48.772;9.148;2023-12-20T13:14:42;6.00;70.33
6480;DHT22;71753;48.772;9.148;2023-12-20T13:17:10;6.12;68.14
6480;DHT22;71753;48.772;9.148;2023-12-20T13:19:37;6.05;69.85
6480;DHT22;71753;48.772;9.148;2023-12-20T13:22:04;6.11;69.69
6480;DHT22;71753;48.772;9.148;2023-12-20T13:24:30;6.00;71.35
6480;DHT22;71753;48.772;9.148;2023-12-20T13:26:57;6.06;69.13
6480;DHT22;71753;48.772;9.148;2023-12-20T13:29:25;5.96;69.48
6480;DHT22;71753;48.772;9.148;2023-12-20T13:31:52;6.20;69.20
6480;DHT22;71753;48.772;9.148;2023-12-20T13:34:19;6.25;67.22
6480;DHT22;71753;48.772;9.148;2023-12-20T13:36:46;6.12;68.38
6480;DHT22;71753;48.772;9.148;2023-12-20T13:39:15;6.01;67.30
6480;DHT22;71753;48.772;9.148;2023-12-20T13:41:42;6.05;68.69
6480;DHT22;71753;48.772;9.148;2023-12-20T13:44:08;5.94;69.69
6480;DHT22;71753;48.772;9.148;2023-12-20T13:46:37;5.94;67.65
6480;DHT22;71753;48.772;9.148;2023-12-20T13:49:03;6.01;68.67
6480;DHT22;71753;48.772;9.148;2023-12-20T13:51:31;5.93;68.81
6480;DHT22;71753;48.772;9.148;2023-12-20T13:53:57;5.95;68.24
6480;DHT22;71753;48.772;9.148;2023-12-20T13:56:24;5.91;68.46
6480;DHT22;71753;48.772;9.148;2023-12-20T13:58:51;5.92;69.71
6480;DHT22;71753;48.772;9.148;2023-12-20T14:01:18;5.84;69.67
6480;DHT22;71753;48.772;9.148;2023-12-20T14:03:46;5.83;70.64
6480;DHT22;71753;48.772;9.148;2023-12-20T14:06:12;5.71;71.08
6480;DHT22;71753;48.772;9.148;2023-12-20T14:08:40;5.72;70.79
6480;DHT22;71753;48.772;9.148;2023-12-20T14:11:07;5.75;72.32
6480;DHT22;71753;48.772;9.148;2023-12-20T14:13:34;5.70;71.43
6480;DHT22;71753;48.772;9.148;2023-12-20T14:16:01;5.70;71.90
6480;DHT22;71753;48.772;9.148;2023-12-20T14:18:29;5.64;73.00
6480;DHT22;71753;48.772;9.148;2023-12-20T14:20:57;5.61;72.70
6480;DHT22;71753;48.772;9.148;2023-12-20T14:23:24;5.59;72.25
6480;DHT22;71753;48.772;9.148;2023-12-20T14:25:50;5.67;72.60
6480;DHT22;71753;48.772;9.148;2023-12-20T14:28:17;5.51;73.50
6480;DHT22;71753;48.772;9.148;2023-12-20T14:30:43;5.46;73.40
6480;DHT22;71753;48.772;9.148;2023-12-20T14:33:10;5.49;72.81
6480;DHT22;71753;48.772;9.148;2023-12-20T14:35:37;5.51;74.51
6480;DHT22;71753;48.772;9.148;2023-12-20T14:38:05;5.40;74.26
6480;DHT22;71753;48.772;9.148;2023-12-20T14:40:31;5.26;76.22
6480;DHT22;71753;48.772;9.148;2023-12-20T14:42:58;5.28;76.11
6480;DHT22;71753;48.772;9.148;2023-12-20T14:45:25;5.26;75.89
6480;DHT22;71753;48.772;9.148;2023-12-20T14:47:52;5.22;76.63
6480;DHT22;71753;48.772;9.148;2023-12-20T14:50:19;5.12;79.56
6480;DHT22;71753;48.772;9.148;2023-12-20T14:52:47;5.18;79.08
6480;DHT22;71753;48.772;9.148;2023-12-20T14:55:15;5.15;77.15
6480;DHT22;71753;48.772;9.148;2023-12-20T14:57:42;5.17;76.43
6480;DHT22;71753;48.772;9.148;2023-12-20T15:00:09;5.11;78.57
6480;DHT22;71753;48.772;9.148;2023-12-20T15:02:40;5.04;79.56
6480;DHT22;71753;48.772;9.148;2023-12-20T15:05:07;5.08;78.26
6480;DHT22;71753;48.772;9.148;2023-12-20T15:07:35;5.12;78.14
6480;DHT22;71753;48.772;9.148;2023-12-20T15:10:03;5.10;78.10
6480;DHT22;71753;48.772;9.148;2023-12-20T15:12:31;5.08;78.58
6480;DHT22;71753;48.772;9.148;2023-12-20T15:14:59;5.07;78.91
6480;DHT22;71753;48.772;9.148;2023-12-20T15:17:26;5.04;78.73
6480;DHT22;71753;48.772;9.148;2023-12-20T15:19:52;5.01;79.57
6480;DHT22;71753;48.772;9.148;2023-12-20T15:22:19;5.04;79.30
6480;DHT22;71753;48.772;9.148;2023-12-20T15:24:45;5.04;79.47
6480;DHT22;71753;48.772;9.148;2023-12-20T15:27:12;5.05;78.18
6480;DHT22;71753;48.772;9.148;2023-12-20T15:29:41;5.01;79.25
6480;DHT22;71753;48.772;9.148;2023-12-20T15:32:08;4.94;79.80
6480;DHT22;71753;48.772;9.148;2023-12-20T15:34:34;4.95;80.14
6480;DHT22;71753;48.772;9.148;2023-12-20T15:37:01;4.93;79.95
6480;DHT22;71753;48.772;9.148;2023-12-20T15:39:28;4.96;80.11
6480;DHT22;71753;48.772;9.148;2023-12-20T15:41:54;4.91;79.96
6480;DHT22;71753;48.772;9.148;2023-12-20T15:44:21;4.93;80.41
6480;DHT22;71753;48.772;9.148;2023-12-20T15:46:51;4.89;80.88
6480;DHT22;71753;48.772;9.148;2023-12-20T15:49:17;4.84;80.94
6480;DHT22;71753;48.772;9.148;2023-12-20T15:51:44;4.87;81.17
6480;DHT22;71753;48.772;9.148;2023-12-20T15:54:11;4.88;80.94
6480;DHT22;71753;48.772;9.148;2023-12-20T15:56:37;4.87;81.04
6480;DHT22;71753;48.772;9.148;2023-12-20T15:59:06;4.87;80.81
6480;DHT22;71753;48.772;9.148;2023-12-20T16:01:33;4.81;81.70